KINS/INS METAR and TAF weather

Enter ICAO airport designator
Station Type Date Time Source
KINS METAR 2019/12/07 06:58 UTC NOAA

KINS 070658Z AUTO 24005KT 10SM BKN070 OVC090 08/07 A3017 RMK AO2 SLP204 T00820068 $


Station Type Date Time Source
KINS Decoded METAR 2019/12/07 06:58 UTC NOAA

Indian Springs, Indian Springs Auxiliary AFLD Nellis AFB, NV, United States (KINS) 36-35N 115-40W
Dec 07, 2019 - 01:58 AM EST / 2019.12.07 0658 UTC
Wind: from the WSW (240 degrees) at 6 MPH (5 KT):0
Visibility: 10 mile(s):0
Sky conditions: overcast
Temperature: 46.8 F (8.2 C)
Dew Point: 44.2 F (6.8 C)
Relative Humidity: 90%
Pressure (altimeter): 30.17 in. Hg (1021 hPa)
ob: KINS 070658Z AUTO 24005KT 10SM BKN070 OVC090 08/07 A3017 RMK AO2 SLP204 T00820068
cycle: 7

Station Type Date Time Source
KINS TAF 2019/12/07 05:03 UTC NOAA

TAF TAF KINS 070501Z 0705/0811 VRB06KT 9999 SCT100 BKN250 QNH3016INS
BECMG 0706/0707 VRB06KT 9999 BKN070 620703 QNH3009INS
BECMG 0719/0720 11010G20KT 9999 FEW030 BKN050 BKN250 QNH3002INS VIRGA OMTNS
TEMPO 0721/0724 9000 -SHRA BKN030
BECMG 0803/0804 14009KT 9999 BKN050 BKN250 QNH2995INS
BECMG 0809/0810 VRB06KT 9999 OVC040 QNH2994INS TX13/0722Z TN04/0712Z LAST NO
AMDS AFT 0706 NEXT 0720

Example: see airport list